Estación Meteorológica Peña el Pijo (Robertgarden) [ 01/30/23 14:57:15 CET ]

Fecha Hora Presion(HPa) Temp (°C) Humedad % Rocio (°C) Viento ( m/s) Direccion Lluvia 1Hora(mm) Lluvia 24H(mm) LLuvia Total(mm)
2012-Oct-23 01:01:16 1012.900 7.8 88 6.0         178.19
2012-Oct-23 02:01:13 1013.000 7.1 89 5.4         178.19
2012-Oct-23 03:04:27 1012.900 6.6 90 5.1         178.19
2012-Oct-23 04:01:14 1012.700 6.1 90 4.6         178.19
2012-Oct-23 05:01:11 1012.300 5.8 91 4.5         178.19
2012-Oct-23 06:01:14 1012.100 5.6 91 4.2         178.19
2012-Oct-23 07:01:12 1012.200 6.1 91 4.8         178.19
2012-Oct-23 08:01:16 1012.300 6.3 92 5.1         178.19
2012-Oct-23 09:01:17 1012.500 6.3 92 5.1         178.19
2012-Oct-23 10:01:14 1012.800 9.8 94 8.8         178.19
2012-Oct-23 11:01:16 1012.600 14.2 80 10.8         178.19
2012-Oct-23 12:01:18 1012.200 17.8 66 11.3         178.19
2012-Oct-23 13:01:14 1011.800 21.1 51 10.6         178.19
2012-Oct-23 14:01:14 1011.300 23.5 46 11.2         178.19
2012-Oct-23 15:01:17 1010.900 23.1 45 10.4         178.19
2012-Oct-23 16:01:11 1010.400 24.2 43 10.8         178.19
2012-Oct-23 17:01:17 1010.300 22.2 49 10.9         178.19
2012-Oct-23 18:01:17 1010.500 19.8 56 10.7         178.19
2012-Oct-23 19:01:13 1010.900 17.9 63 10.7         178.19
2012-Oct-23 20:01:12 1011.400 14.6 73 9.8         178.19
2012-Oct-23 21:01:13 1011.800 12.3 80 9.0         178.19
2012-Oct-23 22:01:13 1011.900 10.8 83 8.0         178.19
2012-Oct-23 23:01:16 1012.000 9.6 85 7.2         178.19

Temperatura Máxima:24°    Temperatura Mínima:
Presión Máxima:1013.000 Hpa    Presión Mínima:1010.300 Hpa


Volver